createdAt,value
2023-02-14T00:00:27.936Z,-1.23
2023-02-14T00:01:28.273Z,-1.21
2023-02-14T00:02:27.957Z,-1.25
2023-02-14T00:03:27.897Z,-1.31
2023-02-14T00:04:27.945Z,-1.33
2023-02-14T00:05:27.872Z,-1.39
2023-02-14T00:06:27.858Z,-1.31
2023-02-14T00:07:27.850Z,-1.38
2023-02-14T00:08:27.834Z,-1.33
2023-02-14T00:09:27.823Z,-1.32
2023-02-14T00:10:27.811Z,-1.32
2023-02-14T00:11:27.791Z,-1.35
2023-02-14T00:12:27.781Z,-1.32
2023-02-14T00:13:27.761Z,-1.29
2023-02-14T00:14:27.751Z,-1.36
2023-02-14T00:15:27.770Z,-1.31
2023-02-14T00:16:27.836Z,-1.33
2023-02-14T00:17:27.722Z,-1.33
2023-02-14T00:18:27.696Z,-1.32
2023-02-14T00:19:27.684Z,-1.29
2023-02-14T00:20:27.680Z,-1.29
2023-02-14T00:21:27.671Z,-1.31
2023-02-14T00:22:27.643Z,-1.38
2023-02-14T00:23:27.630Z,-1.44
2023-02-14T00:24:27.609Z,-1.33
2023-02-14T00:25:27.620Z,-1.46
2023-02-14T00:26:27.590Z,-1.39
2023-02-14T00:27:27.582Z,-1.59
2023-02-14T00:28:27.563Z,-1.47
2023-02-14T00:29:27.549Z,-1.47
2023-02-14T00:30:27.636Z,-1.49
2023-02-14T00:31:27.678Z,-1.47
2023-02-14T00:32:27.512Z,-1.49
2023-02-14T00:33:27.493Z,-1.51
2023-02-14T00:34:27.488Z,-1.54
2023-02-14T00:35:27.470Z,-1.56
2023-02-14T00:36:27.522Z,-1.54
2023-02-14T00:37:27.444Z,-1.59
2023-02-14T00:38:27.433Z,-1.47
2023-02-14T00:39:27.421Z,-1.41
2023-02-14T00:40:27.552Z,-1.53
2023-02-14T00:41:27.603Z,-1.61
2023-02-14T00:42:27.385Z,-1.62
2023-02-14T00:43:27.366Z,-1.50
2023-02-14T00:44:27.355Z,-1.61
2023-02-14T00:45:27.375Z,-1.54
2023-02-14T00:46:27.323Z,-1.62
2023-02-14T00:47:27.346Z,-1.57
2023-02-14T00:48:27.296Z,-1.61
2023-02-14T00:49:27.282Z,-1.64
2023-02-14T00:50:27.266Z,-1.53
2023-02-14T00:51:27.255Z,-1.62
2023-02-14T00:52:27.241Z,-1.64
2023-02-14T00:53:27.235Z,-1.65
2023-02-14T00:54:27.671Z,-1.67
2023-02-14T00:55:27.208Z,-1.70
2023-02-14T00:56:27.195Z,-1.68
2023-02-14T00:57:27.182Z,-1.65
2023-02-14T00:58:27.168Z,-1.71
2023-02-14T00:59:27.155Z,-1.62
2023-02-14T01:00:27.136Z,-1.68
2023-02-14T01:01:27.202Z,-1.74
2023-02-14T01:02:27.171Z,-1.71
2023-02-14T01:03:27.123Z,-1.68
2023-02-14T01:04:27.088Z,-1.70
2023-02-14T01:05:27.067Z,-1.71
2023-02-14T01:06:27.052Z,-1.64
2023-02-14T01:07:27.047Z,-1.80
2023-02-14T01:08:27.483Z,-1.75
2023-02-14T01:09:27.019Z,-1.75
2023-02-14T01:10:27.015Z,-1.74
2023-02-14T01:11:29.317Z,-1.88
2023-02-14T01:12:26.988Z,-1.82
2023-02-14T01:13:26.977Z,-1.72
2023-02-14T01:14:26.956Z,-1.68
2023-02-14T01:15:26.943Z,-1.83
2023-02-14T01:16:27.034Z,-1.75
2023-02-14T01:17:26.917Z,-1.78
2023-02-14T01:18:26.895Z,-1.80
2023-02-14T01:19:26.911Z,-1.90
2023-02-14T01:20:26.868Z,-1.86
2023-02-14T01:21:26.877Z,-1.78
2023-02-14T01:22:26.845Z,-1.77
2023-02-14T01:23:26.830Z,-1.78
2023-02-14T01:24:26.846Z,-1.80
2023-02-14T01:25:26.807Z,-1.85
2023-02-14T01:26:26.798Z,-1.74
2023-02-14T01:27:26.779Z,-1.78
2023-02-14T01:28:26.784Z,-1.83
2023-02-14T01:29:26.766Z,-1.80
2023-02-14T01:30:26.869Z,-1.93
2023-02-14T01:31:26.995Z,-1.75
2023-02-14T01:32:26.717Z,-1.86
2023-02-14T01:33:26.704Z,-1.89
2023-02-14T01:34:26.686Z,-1.88
2023-02-14T01:35:26.699Z,-1.95
2023-02-14T01:36:26.654Z,-1.88
2023-02-14T01:37:26.898Z,-1.93
2023-02-14T01:38:26.635Z,-1.98
2023-02-14T01:39:26.624Z,-2.01
2023-02-14T01:40:26.615Z,-2.03
2023-02-14T01:41:26.607Z,-1.88
2023-02-14T01:42:26.616Z,-1.90
2023-02-14T01:43:26.570Z,-1.96
2023-02-14T01:44:26.573Z,-1.88
2023-02-14T01:45:26.575Z,-2.01
2023-02-14T01:46:26.534Z,-1.93
2023-02-14T01:47:26.518Z,-1.92
2023-02-14T01:48:26.503Z,-1.95
2023-02-14T01:49:26.498Z,-1.95
2023-02-14T01:50:26.488Z,-1.98
2023-02-14T01:51:26.494Z,-1.93
2023-02-14T01:52:26.467Z,-1.98
2023-02-14T01:53:26.450Z,-2.00
2023-02-14T01:54:26.429Z,-2.01
2023-02-14T01:55:26.416Z,-1.98
2023-02-14T01:56:26.398Z,-1.98
2023-02-14T01:57:26.389Z,-1.98
2023-02-14T01:58:26.404Z,-1.93
2023-02-14T01:59:26.355Z,-2.03
2023-02-14T02:00:26.343Z,-2.00
2023-02-14T02:01:26.459Z,-1.93
2023-02-14T02:02:26.362Z,-1.95
2023-02-14T02:03:26.312Z,-2.10
2023-02-14T02:04:26.446Z,-1.98
2023-02-14T02:05:26.277Z,-2.08
2023-02-14T02:06:26.264Z,-2.06
2023-02-14T02:07:26.290Z,-2.08
2023-02-14T02:08:26.245Z,-2.08
2023-02-14T02:09:26.229Z,-2.13
2023-02-14T02:10:26.212Z,-2.10
2023-02-14T02:11:26.202Z,-2.04
2023-02-14T02:12:26.181Z,-2.07
2023-02-14T02:13:26.168Z,-2.07
2023-02-14T02:14:26.160Z,-2.06
2023-02-14T02:15:26.149Z,-2.03
2023-02-14T02:16:26.200Z,-2.07
2023-02-14T02:17:26.125Z,-2.18
2023-02-14T02:18:26.104Z,-2.18
2023-02-14T02:19:26.097Z,-2.11
2023-02-14T02:20:26.082Z,-2.28
2023-02-14T02:21:26.317Z,-2.22
2023-02-14T02:22:26.349Z,-2.24
2023-02-14T02:23:26.058Z,-2.24
2023-02-14T02:24:26.021Z,-2.28
2023-02-14T02:25:26.035Z,-2.25
2023-02-14T02:26:25.992Z,-2.40
2023-02-14T02:27:26.348Z,-2.26
2023-02-14T02:28:25.971Z,-2.29
2023-02-14T02:29:25.951Z,-2.19
2023-02-14T02:30:26.040Z,-2.22
2023-02-14T02:31:26.111Z,-2.19
2023-02-14T02:32:25.919Z,-2.24
2023-02-14T02:33:25.905Z,-2.10
2023-02-14T02:34:25.890Z,-2.22
2023-02-14T02:35:25.874Z,-2.26
2023-02-14T02:36:25.887Z,-2.10
2023-02-14T02:37:25.851Z,-2.21
2023-02-14T02:38:25.833Z,-2.16
2023-02-14T02:39:25.849Z,-2.19
2023-02-14T02:40:25.805Z,-2.25
2023-02-14T02:41:25.798Z,-2.21
2023-02-14T02:42:25.782Z,-2.28
2023-02-14T02:43:25.788Z,-2.32
2023-02-14T02:44:25.753Z,-2.33
2023-02-14T02:45:25.743Z,-2.29
2023-02-14T02:46:25.804Z,-2.29
2023-02-14T02:47:25.716Z,-2.29
2023-02-14T02:48:25.696Z,-2.32
2023-02-14T02:49:25.686Z,-2.32
2023-02-14T02:50:25.687Z,-2.26
2023-02-14T02:51:25.659Z,-2.21
2023-02-14T02:52:25.645Z,-2.26
2023-02-14T02:53:25.634Z,-2.26
2023-02-14T02:54:25.622Z,-2.22
2023-02-14T02:55:25.640Z,-2.19
2023-02-14T02:56:25.594Z,-2.33
2023-02-14T02:57:25.581Z,-2.22
2023-02-14T02:58:25.570Z,-2.33
2023-02-14T02:59:25.560Z,-2.35
2023-02-14T03:00:25.539Z,-2.40
2023-02-14T03:01:25.621Z,-2.37
2023-02-14T03:02:25.517Z,-2.44
2023-02-14T03:03:25.507Z,-2.25
2023-02-14T03:04:25.601Z,-2.21
2023-02-14T03:05:25.479Z,-2.21
2023-02-14T03:06:25.471Z,-2.13
2023-02-14T03:07:25.446Z,-2.01
2023-02-14T03:08:25.427Z,-2.00
2023-02-14T03:09:25.421Z,-2.00
2023-02-14T03:10:25.441Z,-1.89
2023-02-14T03:11:25.434Z,-1.78
2023-02-14T03:12:25.381Z,-1.83
2023-02-14T03:13:25.383Z,-1.74
2023-02-14T03:14:25.357Z,-1.71
2023-02-14T03:15:25.395Z,-1.80
2023-02-14T03:16:25.358Z,-1.74
2023-02-14T03:17:25.319Z,-1.65
2023-02-14T03:18:25.301Z,-1.65
2023-02-14T03:19:25.283Z,-1.61
2023-02-14T03:20:25.276Z,-1.72
2023-02-14T03:21:25.260Z,-1.71
2023-02-14T03:22:25.249Z,-1.67
2023-02-14T03:23:25.239Z,-1.67
2023-02-14T03:24:25.221Z,-1.62
2023-02-14T03:25:25.206Z,-1.62
2023-02-14T03:26:25.214Z,-1.62
2023-02-14T03:27:25.212Z,-1.56
2023-02-14T03:28:25.174Z,-1.53
2023-02-14T03:29:25.154Z,-1.57
2023-02-14T03:30:25.306Z,-1.68
2023-02-14T03:31:25.276Z,-1.57
2023-02-14T03:32:25.113Z,-1.57
2023-02-14T03:33:25.108Z,-1.53
2023-02-14T03:34:25.089Z,-1.54
2023-02-14T03:35:25.072Z,-1.59
2023-02-14T03:36:25.074Z,-1.65
2023-02-14T03:37:25.061Z,-1.54
2023-02-14T03:38:25.035Z,-1.53
2023-02-14T03:39:25.018Z,-1.44
2023-02-14T03:40:25.010Z,-1.50
2023-02-14T03:41:24.998Z,-1.47
2023-02-14T03:42:25.079Z,-1.49
2023-02-14T03:43:24.994Z,-1.46
2023-02-14T03:44:24.954Z,-1.49
2023-02-14T03:45:24.989Z,-1.50
2023-02-14T03:46:25.046Z,-1.47
2023-02-14T03:47:24.918Z,-1.54
2023-02-14T03:48:24.921Z,-1.47
2023-02-14T03:49:24.894Z,-1.51
2023-02-14T03:50:24.883Z,-1.53
2023-02-14T03:51:24.859Z,-1.49
2023-02-14T03:52:24.844Z,-1.43
2023-02-14T03:53:24.832Z,-1.53
2023-02-14T03:54:24.821Z,-1.59
2023-02-14T03:55:24.805Z,-1.54
2023-02-14T03:56:24.794Z,-1.47
2023-02-14T03:57:24.782Z,-1.56
2023-02-14T03:58:24.772Z,-1.50
2023-02-14T03:59:24.779Z,-1.65
2023-02-14T04:00:24.839Z,-1.54
2023-02-14T04:01:24.799Z,-1.59
2023-02-14T04:02:24.713Z,-1.53
2023-02-14T04:03:24.708Z,-1.74
2023-02-14T04:04:24.688Z,-1.65
2023-02-14T04:05:24.690Z,-1.72
2023-02-14T04:06:24.662Z,-1.71
2023-02-14T04:07:24.642Z,-1.72
2023-02-14T04:08:24.633Z,-1.71
2023-02-14T04:09:24.631Z,-1.74
2023-02-14T04:10:24.611Z,-1.72
2023-02-14T04:11:24.812Z,-1.72
2023-02-14T04:12:37.103Z,-1.72
2023-02-14T04:13:25.595Z,-1.75
2023-02-14T04:14:24.547Z,-1.75
2023-02-14T04:15:24.583Z,-1.75
2023-02-14T04:16:24.665Z,-1.71
2023-02-14T04:17:24.511Z,-1.77
2023-02-14T04:18:24.496Z,-1.72
2023-02-14T04:19:24.510Z,-1.59
2023-02-14T04:20:24.476Z,-1.68
2023-02-14T04:21:24.465Z,-1.72
2023-02-14T04:22:24.447Z,-1.72
2023-02-14T04:23:24.443Z,-1.72
2023-02-14T04:24:24.423Z,-1.67
2023-02-14T04:25:24.426Z,-1.67
2023-02-14T04:26:24.390Z,-1.74
2023-02-14T04:27:24.379Z,-1.75
2023-02-14T04:28:24.361Z,-1.65
2023-02-14T04:29:24.360Z,-1.67
2023-02-14T04:30:24.363Z,-1.78
2023-02-14T04:31:24.652Z,-1.67
2023-02-14T04:32:24.440Z,-1.67
2023-02-14T04:33:24.350Z,-1.59
2023-02-14T04:34:24.287Z,-1.59
2023-02-14T04:35:24.273Z,-1.67
2023-02-14T04:36:24.263Z,-1.59
2023-02-14T04:37:24.267Z,-1.64
2023-02-14T04:38:24.239Z,-1.57
2023-02-14T04:39:24.572Z,-1.59
2023-02-14T04:40:24.203Z,-1.51
2023-02-14T04:41:24.193Z,-1.44
2023-02-14T04:42:24.176Z,-1.36
2023-02-14T04:43:24.167Z,-1.38
2023-02-14T04:44:24.158Z,-1.44
2023-02-14T04:45:24.143Z,-1.47
2023-02-14T04:46:24.171Z,-1.41
2023-02-14T04:47:24.143Z,-1.49
2023-02-14T04:48:24.113Z,-1.47
2023-02-14T04:49:24.091Z,-1.43
2023-02-14T04:50:24.074Z,-1.47
2023-02-14T04:51:25.642Z,-1.54
2023-02-14T04:52:24.058Z,-1.53
2023-02-14T04:53:24.035Z,-1.44
2023-02-14T04:54:24.029Z,-1.47
2023-02-14T04:55:24.009Z,-1.67
2023-02-14T04:56:23.985Z,-1.54
2023-02-14T04:57:23.978Z,-1.64
2023-02-14T04:58:23.973Z,-1.67
2023-02-14T04:59:25.082Z,-1.75
2023-02-14T05:00:24.143Z,-1.68
2023-02-14T05:01:23.929Z,-1.77
2023-02-14T05:02:24.040Z,-1.74
2023-02-14T05:03:23.928Z,-1.65
2023-02-14T05:04:23.885Z,-1.72
2023-02-14T05:05:23.869Z,-1.83
2023-02-14T05:06:23.875Z,-1.80
2023-02-14T05:07:23.842Z,-1.83
2023-02-14T05:08:23.834Z,-1.88
2023-02-14T05:09:23.821Z,-1.93
2023-02-14T05:10:23.803Z,-2.06
2023-02-14T05:11:23.796Z,-2.01
2023-02-14T05:12:23.770Z,-2.11
2023-02-14T05:13:23.760Z,-2.10
2023-02-14T05:14:23.764Z,-2.14
2023-02-14T05:15:23.740Z,-2.21
2023-02-14T05:16:23.792Z,-2.26
2023-02-14T05:17:23.711Z,-2.43
2023-02-14T05:18:23.693Z,-2.46
2023-02-14T05:19:23.706Z,-2.53
2023-02-14T05:20:23.670Z,-2.62
2023-02-14T05:21:23.660Z,-2.56
2023-02-14T05:22:23.640Z,-2.51
2023-02-14T05:23:23.625Z,-2.66
2023-02-14T05:24:23.611Z,-2.51
2023-02-14T05:25:23.602Z,-2.62
2023-02-14T05:26:23.588Z,-2.64
2023-02-14T05:27:23.582Z,-2.59
2023-02-14T05:28:23.564Z,-2.64
2023-02-14T05:29:23.551Z,-2.58
2023-02-14T05:30:23.685Z,-2.55
2023-02-14T05:31:23.639Z,-2.51
2023-02-14T05:32:23.514Z,-2.51
2023-02-14T05:33:23.500Z,-2.64
2023-02-14T05:34:23.484Z,-2.65
2023-02-14T05:35:23.492Z,-2.51
2023-02-14T05:36:23.454Z,-2.64
2023-02-14T05:37:23.437Z,-2.61
2023-02-14T05:38:23.429Z,-2.56
2023-02-14T05:39:23.414Z,-2.59
2023-02-14T05:40:46.994Z,-2.59
2023-02-14T05:41:46.973Z,-2.64
2023-02-14T05:42:46.981Z,-2.74
2023-02-14T05:43:47.403Z,-2.80
2023-02-14T05:44:46.932Z,-2.76
2023-02-14T05:45:47.000Z,-2.76
2023-02-14T05:46:46.899Z,-2.84
2023-02-14T05:47:46.900Z,-2.71
2023-02-14T05:48:46.896Z,-2.93
2023-02-14T05:49:46.869Z,-2.86
2023-02-14T05:50:46.881Z,-2.93
2023-02-14T05:51:46.898Z,-2.87
2023-02-14T05:52:46.828Z,-2.80
2023-02-14T05:53:46.820Z,-2.89
2023-02-14T05:54:46.898Z,-2.82
2023-02-14T05:55:47.039Z,-2.86
2023-02-14T05:56:46.785Z,-2.79
2023-02-14T05:57:46.768Z,-2.71
2023-02-14T05:58:46.751Z,-2.74
2023-02-14T05:59:46.735Z,-2.64
2023-02-14T06:00:46.725Z,-2.59
2023-02-14T06:01:46.755Z,-2.82
2023-02-14T06:02:46.690Z,-2.79
2023-02-14T06:03:46.682Z,-2.79
2023-02-14T06:04:46.722Z,-2.77
2023-02-14T06:05:46.659Z,-2.83
2023-02-14T06:06:46.669Z,-2.72
2023-02-14T06:07:46.634Z,-2.84
2023-02-14T06:08:46.618Z,-2.89
2023-02-14T06:09:46.612Z,-2.84
2023-02-14T06:10:46.586Z,-3.00
2023-02-14T06:11:46.580Z,-2.95
2023-02-14T06:12:46.562Z,-2.95
2023-02-14T06:13:46.550Z,-2.97
2023-02-14T06:14:46.688Z,-3.00
2023-02-14T06:15:46.532Z,-3.04
2023-02-14T06:16:46.552Z,-3.05
2023-02-14T06:17:46.625Z,-3.05
2023-02-14T06:18:46.483Z,-3.07
2023-02-14T06:19:46.467Z,-3.00
2023-02-14T06:20:46.473Z,-3.05
2023-02-14T06:21:46.453Z,-2.98
2023-02-14T06:22:46.453Z,-2.98
2023-02-14T06:23:46.428Z,-3.01
2023-02-14T06:24:46.428Z,-2.97
2023-02-14T06:25:46.392Z,-3.08
2023-02-14T06:26:46.417Z,-2.95
2023-02-14T06:27:48.821Z,-2.94
2023-02-14T06:28:46.361Z,-2.97
2023-02-14T06:29:46.354Z,-2.84
2023-02-14T06:30:46.575Z,-3.01
2023-02-14T06:31:46.422Z,-3.00
2023-02-14T06:32:46.315Z,-2.90
2023-02-14T06:33:46.295Z,-2.93
2023-02-14T06:34:46.278Z,-2.97
2023-02-14T06:35:46.270Z,-2.90
2023-02-14T06:36:46.258Z,-3.00
2023-02-14T06:37:46.254Z,-2.89
2023-02-14T06:38:46.249Z,-2.77
2023-02-14T06:39:46.217Z,-2.76
2023-02-14T06:40:46.209Z,-2.87
2023-02-14T06:41:46.186Z,-2.74
2023-02-14T06:42:46.180Z,-2.79
2023-02-14T06:43:46.164Z,-2.76
2023-02-14T06:44:46.151Z,-2.80
2023-02-14T06:45:46.159Z,-2.80
2023-02-14T06:46:46.127Z,-2.82
2023-02-14T06:47:46.114Z,-2.89
2023-02-14T06:48:46.095Z,-2.83
2023-02-14T06:49:46.084Z,-2.83
2023-02-14T06:50:46.069Z,-2.79
2023-02-14T06:51:46.056Z,-2.66
2023-02-14T06:52:46.048Z,-2.74
2023-02-14T06:53:46.042Z,-2.79
2023-02-14T06:54:46.050Z,-2.69
2023-02-14T06:55:46.001Z,-2.58
2023-02-14T06:56:45.994Z,-2.68
2023-02-14T06:57:46.012Z,-2.66
2023-02-14T06:58:45.967Z,-2.50
2023-02-14T06:59:46.157Z,-2.50
2023-02-14T07:00:45.937Z,-2.55
2023-02-14T07:01:45.977Z,-2.53
2023-02-14T07:02:45.954Z,-2.53
2023-02-14T07:03:45.896Z,-2.48
2023-02-14T07:04:45.984Z,-2.50
2023-02-14T07:05:45.874Z,-2.53
2023-02-14T07:06:45.861Z,-2.50
2023-02-14T07:07:45.846Z,-2.43
2023-02-14T07:08:45.833Z,-2.48
2023-02-14T07:09:46.121Z,-2.43
2023-02-14T07:10:45.843Z,-2.25
2023-02-14T07:11:45.795Z,-2.38
2023-02-14T07:12:45.790Z,-2.33
2023-02-14T07:13:47.484Z,-2.35
2023-02-14T07:14:45.750Z,-2.40
2023-02-14T07:15:45.785Z,-2.26
2023-02-14T07:16:45.924Z,-2.28
2023-02-14T07:17:45.716Z,-2.26
2023-02-14T07:18:45.696Z,-2.40
2023-02-14T07:19:45.683Z,-2.26
2023-02-14T07:20:45.676Z,-2.28
2023-02-14T07:21:45.660Z,-2.32
2023-02-14T07:22:45.653Z,-2.28
2023-02-14T07:23:45.636Z,-2.22
2023-02-14T07:24:45.628Z,-2.28
2023-02-14T07:25:45.615Z,-2.21
2023-02-14T07:26:45.636Z,-2.21
2023-02-14T07:27:45.581Z,-2.28
2023-02-14T07:28:45.572Z,-2.14
2023-02-14T07:29:45.550Z,-2.18
2023-02-14T07:30:45.590Z,-2.14
2023-02-14T07:31:45.703Z,-2.08
2023-02-14T07:32:45.520Z,-2.03
2023-02-14T07:33:45.509Z,-1.96
2023-02-14T07:34:45.496Z,-1.98
2023-02-14T07:35:45.477Z,-2.08
2023-02-14T07:36:45.459Z,-2.06
2023-02-14T07:37:45.448Z,-2.11
2023-02-14T07:38:45.436Z,-2.21
2023-02-14T07:39:45.418Z,-2.24
2023-02-14T07:40:45.415Z,-2.24
2023-02-14T07:41:45.401Z,-2.18
2023-02-14T07:42:45.410Z,-2.25
2023-02-14T07:43:45.398Z,-2.21
2023-02-14T07:44:45.360Z,-2.04
2023-02-14T07:45:45.346Z,-1.90
2023-02-14T07:46:45.339Z,-2.04
2023-02-14T07:47:45.320Z,-1.96
2023-02-14T07:48:45.355Z,-1.88
2023-02-14T07:49:45.294Z,-1.88
2023-02-14T07:50:45.297Z,-1.85
2023-02-14T07:51:45.267Z,-1.80
2023-02-14T07:52:45.306Z,-1.83
2023-02-14T07:53:45.237Z,-1.77
2023-02-14T07:54:45.226Z,-1.75
2023-02-14T07:55:45.237Z,-1.75
2023-02-14T07:56:45.198Z,-1.61
2023-02-14T07:57:45.188Z,-1.70
2023-02-14T07:58:45.240Z,-1.64
2023-02-14T07:59:45.162Z,-1.67
2023-02-14T08:00:45.152Z,-1.47
2023-02-14T08:01:45.290Z,-1.54
2023-02-14T08:02:45.122Z,-1.49
2023-02-14T08:03:45.111Z,-1.29
2023-02-14T08:04:45.123Z,-1.31
2023-02-14T08:05:45.080Z,-1.33
2023-02-14T08:06:45.069Z,-1.31
2023-02-14T08:07:45.127Z,-1.35
2023-02-14T08:08:45.047Z,-1.23
2023-02-14T08:09:45.036Z,-1.41
2023-02-14T08:10:45.022Z,-1.36
2023-02-14T08:11:45.011Z,-1.31
2023-02-14T08:12:44.992Z,-1.28
2023-02-14T08:13:44.976Z,-1.26
2023-02-14T08:14:44.995Z,-1.20
2023-02-14T08:15:45.230Z,-1.20
2023-02-14T08:16:44.933Z,-1.17
2023-02-14T08:17:44.920Z,-1.13
2023-02-14T08:18:44.954Z,-1.29
2023-02-14T08:19:44.904Z,-1.23
2023-02-14T08:20:44.887Z,-1.36
2023-02-14T08:21:44.867Z,-1.35
2023-02-14T08:22:44.861Z,-1.35
2023-02-14T08:23:47.437Z,-1.29
2023-02-14T08:24:44.949Z,-1.29
2023-02-14T08:25:44.808Z,-1.05
2023-02-14T08:26:44.814Z,-1.03
2023-02-14T08:27:44.799Z,-0.95
2023-02-14T08:28:44.788Z,-0.78
2023-02-14T08:29:44.773Z,-0.71
2023-02-14T08:30:44.799Z,-0.73
2023-02-14T08:31:44.749Z,-0.60
2023-02-14T08:32:44.742Z,-0.56
2023-02-14T08:33:44.705Z,-0.38
2023-02-14T08:34:44.692Z,-0.47
2023-02-14T08:35:44.683Z,-0.41
2023-02-14T08:36:44.676Z,-0.26
2023-02-14T08:37:44.667Z,-0.16
2023-02-14T08:38:44.669Z,-0.17
2023-02-14T08:39:44.639Z,0.05
2023-02-14T08:40:44.699Z,0.30
2023-02-14T08:41:44.606Z,0.56
2023-02-14T08:42:44.584Z,1.06
2023-02-14T08:43:44.603Z,1.72
2023-02-14T08:44:44.570Z,2.65
2023-02-14T08:45:44.594Z,3.39
2023-02-14T08:46:44.642Z,4.13
2023-02-14T08:47:44.524Z,4.84
2023-02-14T08:48:44.516Z,5.63
2023-02-14T08:49:44.499Z,6.19
2023-02-14T08:50:44.505Z,6.60
2023-02-14T08:51:44.472Z,7.24
2023-02-14T08:52:44.460Z,7.66
2023-02-14T08:53:44.446Z,7.95
2023-02-14T08:54:44.458Z,8.17
2023-02-14T08:55:44.411Z,8.10
2023-02-14T08:56:44.401Z,7.96
2023-02-14T08:57:44.384Z,7.52
2023-02-14T08:58:44.379Z,7.18
2023-02-14T08:59:44.386Z,7.14
2023-02-14T09:00:44.432Z,7.16
2023-02-14T09:01:44.414Z,7.14
2023-02-14T09:02:44.382Z,7.50
2023-02-14T09:03:44.403Z,7.88
2023-02-14T09:04:44.293Z,8.27
2023-02-14T09:05:44.306Z,8.70
2023-02-14T09:06:44.267Z,8.94
2023-02-14T09:07:44.295Z,8.50
2023-02-14T09:08:44.237Z,7.92
2023-02-14T09:09:44.222Z,7.19
2023-02-14T09:10:44.216Z,6.76
2023-02-14T09:11:44.198Z,6.40
2023-02-14T09:12:44.196Z,6.14
2023-02-14T09:13:44.194Z,6.13
2023-02-14T09:14:44.165Z,6.10
2023-02-14T09:15:44.152Z,5.92
2023-02-14T09:16:44.277Z,5.74
2023-02-14T09:17:44.117Z,5.47
2023-02-14T09:18:44.133Z,5.29
2023-02-14T09:19:44.158Z,5.33
2023-02-14T09:20:44.081Z,5.30
2023-02-14T09:21:44.282Z,5.38
2023-02-14T09:22:44.064Z,5.38
2023-02-14T09:23:44.042Z,5.47
2023-02-14T09:24:44.128Z,5.38
2023-02-14T09:25:44.212Z,5.35
2023-02-14T09:26:44.001Z,5.56
2023-02-14T09:27:43.988Z,5.58
2023-02-14T09:28:43.979Z,5.70
2023-02-14T09:29:43.968Z,5.83
2023-02-14T09:30:43.954Z,5.98
2023-02-14T09:31:44.095Z,5.99
2023-02-14T09:32:43.926Z,6.06
2023-02-14T09:33:43.899Z,6.32
2023-02-14T09:34:43.919Z,6.25
2023-02-14T09:35:43.883Z,6.20
2023-02-14T09:36:43.869Z,6.32
2023-02-14T09:37:43.850Z,6.16
2023-02-14T09:38:43.836Z,6.06
2023-02-14T09:39:43.821Z,5.83
2023-02-14T09:40:43.814Z,5.65
2023-02-14T09:41:43.794Z,5.56
2023-02-14T09:42:43.799Z,5.51
2023-02-14T09:43:43.770Z,5.42
2023-02-14T09:44:43.766Z,5.37
2023-02-14T09:45:43.877Z,5.24
2023-02-14T09:46:43.744Z,5.08
2023-02-14T09:47:43.722Z,5.23
2023-02-14T09:48:43.754Z,5.15
2023-02-14T09:49:43.792Z,5.22
2023-02-14T09:50:43.705Z,5.14
2023-02-14T09:51:43.711Z,5.15
2023-02-14T09:52:43.651Z,5.06
2023-02-14T09:53:43.634Z,5.09
2023-02-14T09:54:43.622Z,4.96
2023-02-14T09:55:43.978Z,4.84
2023-02-14T09:56:51.366Z,4.80
2023-02-14T09:57:44.611Z,4.80
2023-02-14T09:58:43.573Z,4.79
2023-02-14T09:59:43.861Z,4.75
2023-02-14T10:00:43.570Z,4.84
2023-02-14T10:01:43.644Z,4.77
2023-02-14T10:02:43.517Z,4.75
2023-02-14T10:03:43.523Z,4.80
2023-02-14T10:04:43.494Z,4.87
2023-02-14T10:05:43.482Z,4.79
2023-02-14T10:06:43.499Z,4.72
2023-02-14T10:07:43.458Z,4.72
2023-02-14T10:08:43.443Z,4.72
2023-02-14T10:09:43.435Z,4.68
2023-02-14T10:10:43.415Z,4.62
2023-02-14T10:11:43.405Z,4.61
2023-02-14T10:12:43.393Z,4.53
2023-02-14T10:13:43.718Z,4.59
2023-02-14T10:14:43.585Z,4.46
2023-02-14T10:15:43.358Z,4.51
2023-02-14T10:16:43.410Z,4.43
2023-02-14T10:17:43.568Z,4.34
2023-02-14T10:18:43.438Z,4.32
2023-02-14T10:19:43.306Z,4.35
2023-02-14T10:20:43.406Z,4.28
2023-02-14T10:21:43.331Z,4.25
2023-02-14T10:22:43.275Z,4.28
2023-02-14T10:23:43.241Z,4.21
2023-02-14T10:24:43.223Z,4.28
2023-02-14T10:25:43.213Z,4.16
2023-02-14T10:26:43.282Z,4.02
2023-02-14T10:27:43.231Z,4.11
2023-02-14T10:28:43.172Z,4.17
2023-02-14T10:29:43.154Z,4.29
2023-02-14T10:30:43.393Z,4.26
2023-02-14T10:31:43.336Z,4.26
2023-02-14T10:32:43.121Z,4.56
2023-02-14T10:33:43.108Z,4.56
2023-02-14T10:34:43.090Z,4.54
2023-02-14T10:35:43.080Z,4.56
2023-02-14T10:36:43.217Z,4.67
2023-02-14T10:37:43.054Z,4.71
2023-02-14T10:38:43.040Z,4.72
2023-02-14T10:39:43.085Z,4.75
2023-02-14T10:40:43.017Z,4.83
2023-02-14T10:41:43.004Z,4.90
2023-02-14T10:42:42.990Z,4.99
2023-02-14T10:43:43.056Z,5.04
2023-02-14T10:44:42.959Z,5.14
2023-02-14T10:45:43.031Z,5.29
2023-02-14T10:46:42.941Z,5.37
2023-02-14T10:47:42.946Z,5.40
2023-02-14T10:48:42.918Z,5.42
2023-02-14T10:49:42.890Z,5.48
2023-02-14T10:50:42.885Z,5.59
2023-02-14T10:51:42.871Z,5.74
2023-02-14T10:52:42.852Z,5.66
2023-02-14T10:53:43.028Z,6.05
2023-02-14T10:54:42.847Z,6.68
2023-02-14T10:55:42.862Z,7.26
2023-02-14T10:56:42.888Z,7.74
2023-02-14T10:57:42.791Z,8.18
2023-02-14T10:58:42.874Z,8.68
2023-02-14T10:59:42.967Z,8.89
2023-02-14T11:00:42.781Z,8.85
2023-02-14T11:01:42.815Z,8.39
2023-02-14T11:02:42.732Z,8.22
2023-02-14T11:03:44.257Z,8.67
2023-02-14T11:04:42.697Z,9.32
2023-02-14T11:05:44.988Z,9.92
2023-02-14T11:06:42.677Z,10.26
2023-02-14T11:07:42.658Z,10.63
2023-02-14T11:08:42.958Z,10.80
2023-02-14T11:09:42.636Z,10.75
2023-02-14T11:10:42.617Z,10.34
2023-02-14T11:11:42.614Z,10.04
2023-02-14T11:12:42.594Z,9.70
2023-02-14T11:13:42.932Z,9.44
2023-02-14T11:14:42.656Z,9.23
2023-02-14T11:15:42.723Z,8.83
2023-02-14T11:16:42.711Z,8.71
2023-02-14T11:17:42.525Z,8.52
2023-02-14T11:18:42.506Z,8.40
2023-02-14T11:19:42.746Z,8.64
2023-02-14T11:20:42.484Z,8.58
2023-02-14T11:21:42.478Z,8.55
2023-02-14T11:22:42.457Z,8.37
2023-02-14T11:23:42.462Z,8.31
2023-02-14T11:24:42.437Z,8.34
2023-02-14T11:25:42.413Z,8.28
2023-02-14T11:26:42.405Z,8.34
2023-02-14T11:27:42.387Z,8.27
2023-02-14T11:28:42.373Z,8.06
2023-02-14T11:29:42.370Z,8.12
2023-02-14T11:30:42.345Z,8.17
2023-02-14T11:31:42.535Z,8.18
2023-02-14T11:32:42.318Z,8.20
2023-02-14T11:33:42.308Z,8.20
2023-02-14T11:34:42.704Z,8.42
2023-02-14T11:35:42.283Z,8.64
2023-02-14T11:36:42.273Z,9.13
2023-02-14T11:37:42.260Z,9.67
2023-02-14T11:38:42.240Z,10.51
2023-02-14T11:39:42.225Z,11.36
2023-02-14T11:40:42.215Z,12.12
2023-02-14T11:41:42.202Z,12.49
2023-02-14T11:42:42.190Z,12.33
2023-02-14T11:43:42.328Z,11.74
2023-02-14T11:44:42.168Z,11.42
2023-02-14T11:45:42.229Z,11.24
2023-02-14T11:46:52.729Z,11.23
2023-02-14T11:47:43.168Z,11.31
2023-02-14T11:48:42.106Z,11.79
2023-02-14T11:49:42.109Z,12.22
2023-02-14T11:50:42.097Z,12.92
2023-02-14T11:51:42.123Z,13.88
2023-02-14T11:52:42.056Z,14.78
2023-02-14T11:53:42.046Z,15.43
2023-02-14T11:54:42.025Z,16.11
2023-02-14T11:55:42.011Z,16.44
2023-02-14T11:56:41.996Z,16.75
2023-02-14T11:57:41.989Z,17.25
2023-02-14T11:58:41.977Z,17.77
2023-02-14T11:59:41.983Z,18.59
2023-02-14T12:00:41.954Z,19.15
2023-02-14T12:01:41.933Z,19.70
2023-02-14T12:02:42.040Z,20.19
2023-02-14T12:03:41.977Z,20.54
2023-02-14T12:04:46.676Z,20.68
2023-02-14T12:05:41.884Z,20.98
2023-02-14T12:06:41.947Z,21.01
2023-02-14T12:07:41.851Z,21.30
2023-02-14T12:08:42.034Z,21.66
2023-02-14T12:09:41.825Z,21.73
2023-02-14T12:10:41.818Z,21.58
2023-02-14T12:11:41.807Z,21.89
2023-02-14T12:12:41.787Z,22.24
2023-02-14T12:13:41.798Z,22.63
2023-02-14T12:14:41.784Z,22.82
2023-02-14T12:15:41.754Z,23.12
2023-02-14T12:16:41.764Z,23.38
2023-02-14T12:17:41.721Z,23.37
2023-02-14T12:18:41.704Z,23.77
2023-02-14T12:19:41.731Z,23.81
2023-02-14T12:20:41.678Z,23.68
2023-02-14T12:21:41.666Z,23.41
2023-02-14T12:22:41.653Z,23.37
2023-02-14T12:23:41.718Z,23.35
2023-02-14T12:24:41.627Z,23.74
2023-02-14T12:25:41.620Z,23.74
2023-02-14T12:26:41.609Z,24.06
2023-02-14T12:27:41.714Z,24.04
2023-02-14T12:28:41.578Z,23.86
2023-02-14T12:29:41.677Z,23.92
2023-02-14T12:30:41.547Z,23.86
2023-02-14T12:31:41.639Z,23.81
2023-02-14T12:32:41.521Z,24.00
2023-02-14T12:33:41.504Z,24.33
2023-02-14T12:34:41.496Z,24.34
2023-02-14T12:35:41.505Z,24.24
2023-02-14T12:36:41.469Z,23.78
2023-02-14T12:37:41.460Z,23.49
2023-02-14T12:38:41.440Z,23.50
2023-02-14T12:39:41.428Z,23.14
2023-02-14T12:40:41.422Z,23.04
2023-02-14T12:41:41.412Z,22.93
2023-02-14T12:42:41.410Z,22.85
2023-02-14T12:43:41.374Z,23.15
2023-02-14T12:44:41.364Z,23.44
2023-02-14T12:45:41.353Z,23.84
2023-02-14T12:46:41.345Z,23.94
2023-02-14T12:47:41.327Z,23.86
2023-02-14T12:48:41.314Z,23.86
2023-02-14T12:49:41.329Z,24.36
2023-02-14T12:50:41.295Z,24.42
2023-02-14T12:51:41.295Z,24.39
2023-02-14T12:52:41.268Z,24.48
2023-02-14T12:53:41.248Z,24.61
2023-02-14T12:54:41.240Z,24.52
2023-02-14T12:55:41.237Z,24.75
2023-02-14T12:56:41.225Z,24.90
2023-02-14T12:57:41.213Z,25.11
2023-02-14T12:58:41.190Z,25.26